Loch Alpine, Michigan
Current Conditions -  °F | °C
As of 1:53 AM on Sunday 26 Oct 2014 (Local Time) from KARB Reporting Station
Clear Clear  
Wind Chill: 52°   Ceiling: Unl
Heat Index: 52°   Visibility: 10mi
Dew Point: 30°   Wind: 12mph
Humidity: 43%   Direction: 320°NW
Pressure: 29.85"   Gusts: NA
Location:  42.2601°N, 83.8448°W
Report Text: KARB 260553Z AUTO 32010KT 10SM CLR 11/M01 A2985 RMK AO2 SLP106 T01111011 10150 20111 53006
Loading
Personal Weather Stations






























Interactive Weather Map
Tropical Storm Tracking
New forecast layout! Learn more

10-Day Weather Forecast

Advertisements
Track Severe Weather on mobile